sensor_id;sensor_type;location;lat;lon;timestamp;P1;durP1;ratioP1;P2;durP2;ratioP2
47523;SDS011;33253;42.144;25.884;2023-05-15T00:00:47;14.02;;;7.93;;
47523;SDS011;33253;42.144;25.884;2023-05-15T00:03:13;11.55;;;8.38;;
47523;SDS011;33253;42.144;25.884;2023-05-15T00:05:38;13.52;;;8.25;;
47523;SDS011;33253;42.144;25.884;2023-05-15T00:08:04;12.00;;;8.45;;
47523;SDS011;33253;42.144;25.884;2023-05-15T00:10:30;13.98;;;8.77;;
47523;SDS011;33253;42.144;25.884;2023-05-15T00:12:55;11.27;;;8.18;;
47523;SDS011;33253;42.144;25.884;2023-05-15T00:18:43;10.45;;;7.72;;
47523;SDS011;33253;42.144;25.884;2023-05-15T00:21:08;13.65;;;8.98;;
47523;SDS011;33253;42.144;25.884;2023-05-15T00:23:34;12.00;;;8.25;;
47523;SDS011;33253;42.144;25.884;2023-05-15T00:25:59;14.98;;;9.20;;
47523;SDS011;33253;42.144;25.884;2023-05-15T00:28:24;15.02;;;9.20;;
47523;SDS011;33253;42.144;25.884;2023-05-15T00:30:50;10.80;;;8.50;;
47523;SDS011;33253;42.144;25.884;2023-05-15T00:33:16;13.88;;;8.93;;
47523;SDS011;33253;42.144;25.884;2023-05-15T00:35:41;11.32;;;8.48;;
47523;SDS011;33253;42.144;25.884;2023-05-15T00:38:07;14.70;;;8.77;;
47523;SDS011;33253;42.144;25.884;2023-05-15T00:40:32;11.68;;;8.95;;
47523;SDS011;33253;42.144;25.884;2023-05-15T00:43:00;12.63;;;8.95;;
47523;SDS011;33253;42.144;25.884;2023-05-15T00:45:27;13.02;;;9.95;;
47523;SDS011;33253;42.144;25.884;2023-05-15T00:47:54;12.40;;;8.52;;
47523;SDS011;33253;42.144;25.884;2023-05-15T00:50:21;12.35;;;8.70;;
47523;SDS011;33253;42.144;25.884;2023-05-15T00:52:48;14.05;;;8.82;;
47523;SDS011;33253;42.144;25.884;2023-05-15T00:55:14;15.95;;;9.65;;
47523;SDS011;33253;42.144;25.884;2023-05-15T00:57:40;11.32;;;8.32;;
47523;SDS011;33253;42.144;25.884;2023-05-15T01:00:07;13.32;;;9.35;;
47523;SDS011;33253;42.144;25.884;2023-05-15T01:02:37;14.20;;;9.38;;
47523;SDS011;33253;42.144;25.884;2023-05-15T01:05:03;14.07;;;8.52;;
47523;SDS011;33253;42.144;25.884;2023-05-15T01:07:29;15.05;;;9.00;;
47523;SDS011;33253;42.144;25.884;2023-05-15T01:09:57;11.57;;;8.30;;
47523;SDS011;33253;42.144;25.884;2023-05-15T01:12:24;13.48;;;8.70;;
47523;SDS011;33253;42.144;25.884;2023-05-15T01:14:51;18.90;;;9.02;;
47523;SDS011;33253;42.144;25.884;2023-05-15T01:17:17;11.35;;;9.13;;
47523;SDS011;33253;42.144;25.884;2023-05-15T01:19:43;11.32;;;8.73;;
47523;SDS011;33253;42.144;25.884;2023-05-15T01:28:00;15.43;;;9.35;;
47523;SDS011;33253;42.144;25.884;2023-05-15T01:30:33;15.10;;;10.23;;
47523;SDS011;33253;42.144;25.884;2023-05-15T01:33:07;11.32;;;8.88;;
47523;SDS011;33253;42.144;25.884;2023-05-15T01:38:38;20.05;;;9.57;;
47523;SDS011;33253;42.144;25.884;2023-05-15T01:41:30;15.23;;;9.77;;
47523;SDS011;33253;42.144;25.884;2023-05-15T01:44:01;13.77;;;9.25;;
47523;SDS011;33253;42.144;25.884;2023-05-15T01:46:31;13.85;;;9.15;;
47523;SDS011;33253;42.144;25.884;2023-05-15T01:49:02;15.00;;;9.30;;
47523;SDS011;33253;42.144;25.884;2023-05-15T01:51:28;14.10;;;9.30;;
47523;SDS011;33253;42.144;25.884;2023-05-15T01:53:55;14.77;;;8.80;;
47523;SDS011;33253;42.144;25.884;2023-05-15T01:56:23;13.20;;;8.25;;
47523;SDS011;33253;42.144;25.884;2023-05-15T01:58:50;12.70;;;8.85;;
47523;SDS011;33253;42.144;25.884;2023-05-15T02:01:16;14.25;;;8.55;;
47523;SDS011;33253;42.144;25.884;2023-05-15T02:03:43;13.85;;;8.85;;
47523;SDS011;33253;42.144;25.884;2023-05-15T02:06:10;12.85;;;8.13;;
47523;SDS011;33253;42.144;25.884;2023-05-15T02:08:36;13.23;;;8.90;;
47523;SDS011;33253;42.144;25.884;2023-05-15T02:11:03;16.67;;;9.55;;
47523;SDS011;33253;42.144;25.884;2023-05-15T02:13:29;14.27;;;8.57;;
47523;SDS011;33253;42.144;25.884;2023-05-15T02:15:56;13.55;;;8.60;;
47523;SDS011;33253;42.144;25.884;2023-05-15T02:18:22;11.48;;;8.38;;
47523;SDS011;33253;42.144;25.884;2023-05-15T02:20:47;13.98;;;9.23;;
47523;SDS011;33253;42.144;25.884;2023-05-15T02:23:13;15.35;;;9.52;;
47523;SDS011;33253;42.144;25.884;2023-05-15T02:25:44;10.38;;;8.25;;
47523;SDS011;33253;42.144;25.884;2023-05-15T02:28:42;14.13;;;8.88;;
47523;SDS011;33253;42.144;25.884;2023-05-15T02:31:26;11.77;;;8.77;;
47523;SDS011;33253;42.144;25.884;2023-05-15T02:34:06;13.20;;;8.15;;
47523;SDS011;33253;42.144;25.884;2023-05-15T02:39:05;13.45;;;9.90;;
47523;SDS011;33253;42.144;25.884;2023-05-15T02:41:32;14.98;;;9.60;;
47523;SDS011;33253;42.144;25.884;2023-05-15T02:44:00;12.77;;;9.48;;
47523;SDS011;33253;42.144;25.884;2023-05-15T02:46:27;14.07;;;10.13;;
47523;SDS011;33253;42.144;25.884;2023-05-15T02:48:53;10.65;;;8.93;;
47523;SDS011;33253;42.144;25.884;2023-05-15T02:51:19;15.38;;;9.57;;
47523;SDS011;33253;42.144;25.884;2023-05-15T02:53:45;15.40;;;10.10;;
47523;SDS011;33253;42.144;25.884;2023-05-15T02:56:10;14.57;;;10.38;;
47523;SDS011;33253;42.144;25.884;2023-05-15T02:58:36;15.07;;;10.00;;
47523;SDS011;33253;42.144;25.884;2023-05-15T03:01:03;14.60;;;10.55;;
47523;SDS011;33253;42.144;25.884;2023-05-15T03:03:28;14.68;;;9.88;;
47523;SDS011;33253;42.144;25.884;2023-05-15T03:05:54;11.18;;;9.85;;
47523;SDS011;33253;42.144;25.884;2023-05-15T03:08:20;16.95;;;9.82;;
47523;SDS011;33253;42.144;25.884;2023-05-15T03:10:45;15.68;;;9.77;;
47523;SDS011;33253;42.144;25.884;2023-05-15T03:13:11;14.88;;;9.80;;
47523;SDS011;33253;42.144;25.884;2023-05-15T03:15:36;17.23;;;10.00;;
47523;SDS011;33253;42.144;25.884;2023-05-15T03:18:01;13.40;;;9.43;;
47523;SDS011;33253;42.144;25.884;2023-05-15T03:20:27;15.18;;;10.13;;
47523;SDS011;33253;42.144;25.884;2023-05-15T03:22:52;14.00;;;9.15;;
47523;SDS011;33253;42.144;25.884;2023-05-15T03:25:18;14.30;;;8.82;;
47523;SDS011;33253;42.144;25.884;2023-05-15T03:27:45;12.57;;;9.13;;
47523;SDS011;33253;42.144;25.884;2023-05-15T03:30:10;15.00;;;10.25;;
47523;SDS011;33253;42.144;25.884;2023-05-15T03:32:36;13.82;;;9.35;;
47523;SDS011;33253;42.144;25.884;2023-05-15T03:35:01;11.32;;;8.55;;
47523;SDS011;33253;42.144;25.884;2023-05-15T03:37:27;15.30;;;9.02;;
47523;SDS011;33253;42.144;25.884;2023-05-15T03:39:52;17.15;;;9.75;;
47523;SDS011;33253;42.144;25.884;2023-05-15T03:42:18;11.20;;;9.10;;
47523;SDS011;33253;42.144;25.884;2023-05-15T03:44:47;14.40;;;9.63;;
47523;SDS011;33253;42.144;25.884;2023-05-15T03:47:13;11.95;;;9.55;;
47523;SDS011;33253;42.144;25.884;2023-05-15T03:49:39;17.73;;;9.70;;
47523;SDS011;33253;42.144;25.884;2023-05-15T03:52:05;12.40;;;9.35;;
47523;SDS011;33253;42.144;25.884;2023-05-15T03:54:30;11.77;;;9.18;;
47523;SDS011;33253;42.144;25.884;2023-05-15T03:56:56;14.10;;;9.57;;
47523;SDS011;33253;42.144;25.884;2023-05-15T03:59:21;13.20;;;9.80;;
47523;SDS011;33253;42.144;25.884;2023-05-15T04:01:47;13.00;;;9.43;;
47523;SDS011;33253;42.144;25.884;2023-05-15T04:04:12;16.45;;;9.20;;
47523;SDS011;33253;42.144;25.884;2023-05-15T04:06:38;15.23;;;10.25;;
47523;SDS011;33253;42.144;25.884;2023-05-15T04:09:03;14.27;;;10.70;;
47523;SDS011;33253;42.144;25.884;2023-05-15T04:11:28;14.70;;;10.00;;
47523;SDS011;33253;42.144;25.884;2023-05-15T04:13:54;13.10;;;9.60;;
47523;SDS011;33253;42.144;25.884;2023-05-15T04:16:19;12.80;;;9.48;;
47523;SDS011;33253;42.144;25.884;2023-05-15T04:18:45;16.98;;;9.75;;
47523;SDS011;33253;42.144;25.884;2023-05-15T04:21:10;13.32;;;10.05;;
47523;SDS011;33253;42.144;25.884;2023-05-15T04:23:36;16.80;;;10.00;;
47523;SDS011;33253;42.144;25.884;2023-05-15T04:26:01;11.77;;;8.90;;
47523;SDS011;33253;42.144;25.884;2023-05-15T04:28:26;12.80;;;9.60;;
47523;SDS011;33253;42.144;25.884;2023-05-15T04:30:52;15.02;;;9.55;;
47523;SDS011;33253;42.144;25.884;2023-05-15T04:33:17;13.75;;;9.60;;
47523;SDS011;33253;42.144;25.884;2023-05-15T04:35:43;17.60;;;8.90;;
47523;SDS011;33253;42.144;25.884;2023-05-15T04:38:08;13.05;;;9.27;;
47523;SDS011;33253;42.144;25.884;2023-05-15T04:40:34;13.68;;;8.70;;
47523;SDS011;33253;42.144;25.884;2023-05-15T04:42:59;12.52;;;9.35;;
47523;SDS011;33253;42.144;25.884;2023-05-15T04:45:25;12.98;;;9.55;;
47523;SDS011;33253;42.144;25.884;2023-05-15T04:47:50;13.32;;;9.90;;
47523;SDS011;33253;42.144;25.884;2023-05-15T04:50:16;14.02;;;10.57;;
47523;SDS011;33253;42.144;25.884;2023-05-15T04:52:41;14.60;;;9.90;;
47523;SDS011;33253;42.144;25.884;2023-05-15T04:55:09;12.52;;;9.35;;
47523;SDS011;33253;42.144;25.884;2023-05-15T04:57:35;12.63;;;9.13;;
47523;SDS011;33253;42.144;25.884;2023-05-15T05:00:00;14.05;;;8.82;;
47523;SDS011;33253;42.144;25.884;2023-05-15T05:02:26;13.70;;;9.82;;
47523;SDS011;33253;42.144;25.884;2023-05-15T05:04:51;13.80;;;9.00;;
47523;SDS011;33253;42.144;25.884;2023-05-15T05:07:17;12.45;;;9.30;;
47523;SDS011;33253;42.144;25.884;2023-05-15T05:09:43;13.48;;;9.57;;
47523;SDS011;33253;42.144;25.884;2023-05-15T05:12:08;14.23;;;9.27;;
47523;SDS011;33253;42.144;25.884;2023-05-15T05:14:34;15.00;;;8.57;;
47523;SDS011;33253;42.144;25.884;2023-05-15T05:16:59;15.00;;;9.38;;
47523;SDS011;33253;42.144;25.884;2023-05-15T05:19:25;13.60;;;8.85;;
47523;SDS011;33253;42.144;25.884;2023-05-15T05:21:52;15.43;;;9.68;;
47523;SDS011;33253;42.144;25.884;2023-05-15T05:24:18;11.75;;;9.43;;
47523;SDS011;33253;42.144;25.884;2023-05-15T05:26:43;13.25;;;9.73;;
47523;SDS011;33253;42.144;25.884;2023-05-15T05:29:09;13.48;;;9.15;;
47523;SDS011;33253;42.144;25.884;2023-05-15T05:31:34;17.02;;;9.32;;
47523;SDS011;33253;42.144;25.884;2023-05-15T05:34:00;16.23;;;9.50;;
47523;SDS011;33253;42.144;25.884;2023-05-15T05:36:25;15.73;;;9.80;;
47523;SDS011;33253;42.144;25.884;2023-05-15T05:38:51;15.05;;;10.65;;
47523;SDS011;33253;42.144;25.884;2023-05-15T05:41:16;13.20;;;9.55;;
47523;SDS011;33253;42.144;25.884;2023-05-15T05:43:42;13.38;;;9.63;;
47523;SDS011;33253;42.144;25.884;2023-05-15T05:46:07;14.95;;;9.40;;
47523;SDS011;33253;42.144;25.884;2023-05-15T05:48:32;13.60;;;10.23;;
47523;SDS011;33253;42.144;25.884;2023-05-15T05:50:58;14.30;;;9.30;;
47523;SDS011;33253;42.144;25.884;2023-05-15T05:53:23;12.35;;;8.93;;
47523;SDS011;33253;42.144;25.884;2023-05-15T05:55:50;10.65;;;8.57;;
47523;SDS011;33253;42.144;25.884;2023-05-15T05:58:15;11.77;;;8.63;;
47523;SDS011;33253;42.144;25.884;2023-05-15T06:00:42;10.93;;;8.10;;
47523;SDS011;33253;42.144;25.884;2023-05-15T06:03:08;12.07;;;9.02;;
47523;SDS011;33253;42.144;25.884;2023-05-15T06:05:33;12.43;;;9.10;;
47523;SDS011;33253;42.144;25.884;2023-05-15T06:07:59;14.25;;;8.55;;
47523;SDS011;33253;42.144;25.884;2023-05-15T06:10:26;11.50;;;7.90;;
47523;SDS011;33253;42.144;25.884;2023-05-15T06:12:51;12.50;;;8.27;;
47523;SDS011;33253;42.144;25.884;2023-05-15T06:15:17;14.45;;;8.25;;
47523;SDS011;33253;42.144;25.884;2023-05-15T06:17:42;14.32;;;10.25;;
47523;SDS011;33253;42.144;25.884;2023-05-15T06:20:08;12.60;;;8.82;;
47523;SDS011;33253;42.144;25.884;2023-05-15T06:22:37;13.00;;;8.40;;
47523;SDS011;33253;42.144;25.884;2023-05-15T06:25:03;10.70;;;8.48;;
47523;SDS011;33253;42.144;25.884;2023-05-15T06:27:29;12.98;;;8.00;;
47523;SDS011;33253;42.144;25.884;2023-05-15T06:29:55;18.63;;;9.20;;
47523;SDS011;33253;42.144;25.884;2023-05-15T06:32:21;13.25;;;8.85;;
47523;SDS011;33253;42.144;25.884;2023-05-15T06:34:46;9.43;;;8.13;;
47523;SDS011;33253;42.144;25.884;2023-05-15T06:37:12;15.82;;;10.15;;
47523;SDS011;33253;42.144;25.884;2023-05-15T06:39:37;13.02;;;8.85;;
47523;SDS011;33253;42.144;25.884;2023-05-15T06:42:03;13.65;;;9.45;;
47523;SDS011;33253;42.144;25.884;2023-05-15T06:44:29;13.85;;;10.10;;
47523;SDS011;33253;42.144;25.884;2023-05-15T06:46:55;15.38;;;11.18;;
47523;SDS011;33253;42.144;25.884;2023-05-15T06:49:21;14.40;;;10.93;;
47523;SDS011;33253;42.144;25.884;2023-05-15T06:51:46;21.20;;;13.88;;
47523;SDS011;33253;42.144;25.884;2023-05-15T06:54:12;11.70;;;8.32;;
47523;SDS011;33253;42.144;25.884;2023-05-15T06:56:38;11.50;;;9.05;;
47523;SDS011;33253;42.144;25.884;2023-05-15T06:59:03;14.73;;;9.98;;
47523;SDS011;33253;42.144;25.884;2023-05-15T07:01:29;14.00;;;8.30;;
47523;SDS011;33253;42.144;25.884;2023-05-15T07:03:55;12.38;;;8.70;;
47523;SDS011;33253;42.144;25.884;2023-05-15T07:06:21;20.23;;;18.33;;
47523;SDS011;33253;42.144;25.884;2023-05-15T07:08:47;11.55;;;8.98;;
47523;SDS011;33253;42.144;25.884;2023-05-15T07:11:12;14.55;;;9.40;;
47523;SDS011;33253;42.144;25.884;2023-05-15T07:13:38;14.02;;;9.68;;
47523;SDS011;33253;42.144;25.884;2023-05-15T07:16:03;14.73;;;9.75;;
47523;SDS011;33253;42.144;25.884;2023-05-15T07:18:29;10.90;;;8.50;;
47523;SDS011;33253;42.144;25.884;2023-05-15T07:20:54;12.82;;;9.02;;
47523;SDS011;33253;42.144;25.884;2023-05-15T07:23:20;13.65;;;8.88;;
47523;SDS011;33253;42.144;25.884;2023-05-15T07:25:45;13.98;;;9.77;;
47523;SDS011;33253;42.144;25.884;2023-05-15T07:28:10;12.60;;;9.15;;
47523;SDS011;33253;42.144;25.884;2023-05-15T07:30:36;14.40;;;9.38;;
47523;SDS011;33253;42.144;25.884;2023-05-15T07:33:01;14.52;;;8.40;;
47523;SDS011;33253;42.144;25.884;2023-05-15T07:35:27;12.05;;;8.68;;
47523;SDS011;33253;42.144;25.884;2023-05-15T07:37:53;46.08;;;29.63;;
47523;SDS011;33253;42.144;25.884;2023-05-15T07:40:19;13.18;;;10.10;;
47523;SDS011;33253;42.144;25.884;2023-05-15T07:42:44;12.25;;;9.13;;
47523;SDS011;33253;42.144;25.884;2023-05-15T07:45:10;12.50;;;9.05;;
47523;SDS011;33253;42.144;25.884;2023-05-15T07:47:35;13.93;;;9.38;;
47523;SDS011;33253;42.144;25.884;2023-05-15T07:50:01;10.68;;;8.55;;
47523;SDS011;33253;42.144;25.884;2023-05-15T07:52:27;11.05;;;8.52;;
47523;SDS011;33253;42.144;25.884;2023-05-15T07:54:52;12.77;;;9.07;;
47523;SDS011;33253;42.144;25.884;2023-05-15T07:57:17;10.63;;;9.15;;
47523;SDS011;33253;42.144;25.884;2023-05-15T07:59:43;11.82;;;8.70;;
47523;SDS011;33253;42.144;25.884;2023-05-15T08:02:09;13.07;;;8.70;;
47523;SDS011;33253;42.144;25.884;2023-05-15T08:04:34;11.43;;;8.27;;
47523;SDS011;33253;42.144;25.884;2023-05-15T08:07:00;13.30;;;9.07;;
47523;SDS011;33253;42.144;25.884;2023-05-15T08:09:25;14.95;;;9.15;;
47523;SDS011;33253;42.144;25.884;2023-05-15T08:11:54;12.77;;;8.98;;
47523;SDS011;33253;42.144;25.884;2023-05-15T08:14:20;12.10;;;8.23;;
47523;SDS011;33253;42.144;25.884;2023-05-15T08:16:45;10.95;;;7.75;;
47523;SDS011;33253;42.144;25.884;2023-05-15T08:19:11;13.35;;;8.57;;
47523;SDS011;33253;42.144;25.884;2023-05-15T08:21:36;11.63;;;8.13;;
47523;SDS011;33253;42.144;25.884;2023-05-15T08:24:02;11.13;;;9.18;;
47523;SDS011;33253;42.144;25.884;2023-05-15T08:26:27;13.20;;;8.75;;
47523;SDS011;33253;42.144;25.884;2023-05-15T08:28:53;10.20;;;8.55;;
47523;SDS011;33253;42.144;25.884;2023-05-15T08:31:20;12.13;;;8.93;;
47523;SDS011;33253;42.144;25.884;2023-05-15T08:33:46;10.40;;;8.40;;
47523;SDS011;33253;42.144;25.884;2023-05-15T08:36:11;15.13;;;7.93;;
47523;SDS011;33253;42.144;25.884;2023-05-15T08:38:36;10.82;;;7.82;;
47523;SDS011;33253;42.144;25.884;2023-05-15T08:41:05;11.85;;;7.93;;
47523;SDS011;33253;42.144;25.884;2023-05-15T08:43:35;10.25;;;7.90;;
47523;SDS011;33253;42.144;25.884;2023-05-15T08:46:03;10.63;;;8.52;;
47523;SDS011;33253;42.144;25.884;2023-05-15T08:48:30;11.50;;;8.73;;
47523;SDS011;33253;42.144;25.884;2023-05-15T08:51:01;11.50;;;8.13;;
47523;SDS011;33253;42.144;25.884;2023-05-15T08:53:28;11.10;;;7.90;;
47523;SDS011;33253;42.144;25.884;2023-05-15T08:55:53;11.20;;;7.88;;
47523;SDS011;33253;42.144;25.884;2023-05-15T08:58:19;13.82;;;8.00;;
47523;SDS011;33253;42.144;25.884;2023-05-15T09:00:49;10.70;;;7.47;;
47523;SDS011;33253;42.144;25.884;2023-05-15T09:03:15;11.05;;;7.50;;
47523;SDS011;33253;42.144;25.884;2023-05-15T09:05:42;13.57;;;7.65;;
47523;SDS011;33253;42.144;25.884;2023-05-15T09:08:08;9.05;;;7.45;;
47523;SDS011;33253;42.144;25.884;2023-05-15T09:10:34;12.77;;;7.57;;
47523;SDS011;33253;42.144;25.884;2023-05-15T09:13:00;13.07;;;7.10;;
47523;SDS011;33253;42.144;25.884;2023-05-15T09:15:26;10.07;;;7.65;;
47523;SDS011;33253;42.144;25.884;2023-05-15T09:17:54;9.95;;;8.13;;
47523;SDS011;33253;42.144;25.884;2023-05-15T09:20:38;9.32;;;7.43;;
47523;SDS011;33253;42.144;25.884;2023-05-15T09:23:04;9.23;;;7.47;;
47523;SDS011;33253;42.144;25.884;2023-05-15T09:25:45;9.95;;;8.40;;
47523;SDS011;33253;42.144;25.884;2023-05-15T09:28:25;12.43;;;7.97;;
47523;SDS011;33253;42.144;25.884;2023-05-15T09:30:56;11.15;;;8.50;;
47523;SDS011;33253;42.144;25.884;2023-05-15T09:33:26;11.90;;;7.78;;
47523;SDS011;33253;42.144;25.884;2023-05-15T09:35:56;10.90;;;8.40;;
47523;SDS011;33253;42.144;25.884;2023-05-15T09:38:22;15.15;;;8.25;;
47523;SDS011;33253;42.144;25.884;2023-05-15T09:40:47;9.43;;;7.55;;
47523;SDS011;33253;42.144;25.884;2023-05-15T09:43:12;10.27;;;8.90;;
47523;SDS011;33253;42.144;25.884;2023-05-15T09:45:38;9.68;;;7.50;;
47523;SDS011;33253;42.144;25.884;2023-05-15T09:48:04;9.80;;;7.40;;
47523;SDS011;33253;42.144;25.884;2023-05-15T09:50:32;10.00;;;7.35;;
47523;SDS011;33253;42.144;25.884;2023-05-15T09:52:59;12.88;;;7.18;;
47523;SDS011;33253;42.144;25.884;2023-05-15T09:55:25;11.70;;;7.40;;
47523;SDS011;33253;42.144;25.884;2023-05-15T09:58:04;12.88;;;7.15;;
47523;SDS011;33253;42.144;25.884;2023-05-15T10:00:38;9.75;;;6.13;;
47523;SDS011;33253;42.144;25.884;2023-05-15T10:03:04;8.32;;;6.25;;
47523;SDS011;33253;42.144;25.884;2023-05-15T10:05:31;8.75;;;6.85;;
47523;SDS011;33253;42.144;25.884;2023-05-15T10:07:57;10.00;;;6.45;;
47523;SDS011;33253;42.144;25.884;2023-05-15T10:10:24;10.30;;;6.30;;
47523;SDS011;33253;42.144;25.884;2023-05-15T10:12:50;11.18;;;6.80;;
47523;SDS011;33253;42.144;25.884;2023-05-15T10:15:17;8.00;;;6.07;;
47523;SDS011;33253;42.144;25.884;2023-05-15T10:17:44;9.80;;;6.13;;
47523;SDS011;33253;42.144;25.884;2023-05-15T10:20:12;9.48;;;6.70;;
47523;SDS011;33253;42.144;25.884;2023-05-15T10:22:40;7.03;;;5.65;;
47523;SDS011;33253;42.144;25.884;2023-05-15T10:25:26;9.38;;;5.50;;
47523;SDS011;33253;42.144;25.884;2023-05-15T10:28:07;7.53;;;5.28;;
47523;SDS011;33253;42.144;25.884;2023-05-15T10:30:34;6.68;;;5.10;;
47523;SDS011;33253;42.144;25.884;2023-05-15T10:33:01;7.40;;;4.78;;
47523;SDS011;33253;42.144;25.884;2023-05-15T10:35:28;8.43;;;4.63;;
47523;SDS011;33253;42.144;25.884;2023-05-15T10:37:54;7.03;;;4.93;;
47523;SDS011;33253;42.144;25.884;2023-05-15T10:40:21;7.38;;;4.95;;
47523;SDS011;33253;42.144;25.884;2023-05-15T10:42:47;6.90;;;4.97;;
47523;SDS011;33253;42.144;25.884;2023-05-15T10:45:13;11.80;;;5.10;;
47523;SDS011;33253;42.144;25.884;2023-05-15T10:47:39;8.60;;;5.20;;
47523;SDS011;33253;42.144;25.884;2023-05-15T10:50:06;7.38;;;4.75;;
47523;SDS011;33253;42.144;25.884;2023-05-15T10:52:32;7.70;;;4.30;;
47523;SDS011;33253;42.144;25.884;2023-05-15T10:54:58;7.60;;;5.03;;
47523;SDS011;33253;42.144;25.884;2023-05-15T10:57:24;9.70;;;5.43;;
47523;SDS011;33253;42.144;25.884;2023-05-15T10:59:53;12.25;;;5.20;;
47523;SDS011;33253;42.144;25.884;2023-05-15T11:04:47;9.43;;;5.53;;
47523;SDS011;33253;42.144;25.884;2023-05-15T11:07:17;9.55;;;4.53;;
47523;SDS011;33253;42.144;25.884;2023-05-15T11:09:44;9.25;;;5.38;;
47523;SDS011;33253;42.144;25.884;2023-05-15T11:12:10;6.88;;;4.63;;
47523;SDS011;33253;42.144;25.884;2023-05-15T11:14:42;7.95;;;4.82;;
47523;SDS011;33253;42.144;25.884;2023-05-15T11:17:28;8.45;;;4.70;;
47523;SDS011;33253;42.144;25.884;2023-05-15T11:19:56;6.75;;;4.80;;
47523;SDS011;33253;42.144;25.884;2023-05-15T11:24:53;8.43;;;4.85;;
47523;SDS011;33253;42.144;25.884;2023-05-15T11:27:22;7.88;;;5.22;;
47523;SDS011;33253;42.144;25.884;2023-05-15T11:32:55;7.73;;;4.20;;
47523;SDS011;33253;42.144;25.884;2023-05-15T11:40:49;8.27;;;4.95;;
47523;SDS011;33253;42.144;25.884;2023-05-15T11:45:50;9.35;;;4.82;;
47523;SDS011;33253;42.144;25.884;2023-05-15T11:48:20;8.95;;;4.63;;
47523;SDS011;33253;42.144;25.884;2023-05-15T11:50:46;9.20;;;4.38;;
47523;SDS011;33253;42.144;25.884;2023-05-15T11:53:11;8.43;;;4.85;;
47523;SDS011;33253;42.144;25.884;2023-05-15T11:55:38;8.80;;;4.72;;
47523;SDS011;33253;42.144;25.884;2023-05-15T11:58:09;7.53;;;4.82;;
47523;SDS011;33253;42.144;25.884;2023-05-15T12:00:37;11.40;;;5.13;;
47523;SDS011;33253;42.144;25.884;2023-05-15T12:03:03;9.70;;;4.45;;
47523;SDS011;33253;42.144;25.884;2023-05-15T12:05:28;9.60;;;4.30;;
47523;SDS011;33253;42.144;25.884;2023-05-15T12:07:55;9.40;;;4.75;;
47523;SDS011;33253;42.144;25.884;2023-05-15T12:10:20;12.20;;;5.47;;
47523;SDS011;33253;42.144;25.884;2023-05-15T12:12:45;8.55;;;5.47;;
47523;SDS011;33253;42.144;25.884;2023-05-15T12:15:13;9.05;;;5.22;;
47523;SDS011;33253;42.144;25.884;2023-05-15T12:17:40;10.75;;;5.43;;
47523;SDS011;33253;42.144;25.884;2023-05-15T12:20:09;9.48;;;5.10;;
47523;SDS011;33253;42.144;25.884;2023-05-15T12:22:39;8.60;;;5.35;;
47523;SDS011;33253;42.144;25.884;2023-05-15T12:25:09;10.80;;;5.38;;
47523;SDS011;33253;42.144;25.884;2023-05-15T12:27:36;9.05;;;5.90;;
47523;SDS011;33253;42.144;25.884;2023-05-15T12:30:03;10.90;;;6.07;;
47523;SDS011;33253;42.144;25.884;2023-05-15T12:32:30;7.32;;;5.20;;
47523;SDS011;33253;42.144;25.884;2023-05-15T12:34:57;11.40;;;5.85;;
47523;SDS011;33253;42.144;25.884;2023-05-15T12:37:23;13.63;;;5.50;;
47523;SDS011;33253;42.144;25.884;2023-05-15T12:39:53;13.13;;;5.95;;
47523;SDS011;33253;42.144;25.884;2023-05-15T12:42:19;14.68;;;5.55;;
47523;SDS011;33253;42.144;25.884;2023-05-15T12:44:50;7.53;;;4.63;;
47523;SDS011;33253;42.144;25.884;2023-05-15T12:47:23;9.18;;;5.13;;
47523;SDS011;33253;42.144;25.884;2023-05-15T12:49:50;7.07;;;4.95;;
47523;SDS011;33253;42.144;25.884;2023-05-15T12:52:22;9.20;;;5.25;;
47523;SDS011;33253;42.144;25.884;2023-05-15T12:54:47;9.25;;;5.38;;
47523;SDS011;33253;42.144;25.884;2023-05-15T12:57:13;11.93;;;6.30;;
47523;SDS011;33253;42.144;25.884;2023-05-15T12:59:38;9.07;;;5.43;;
47523;SDS011;33253;42.144;25.884;2023-05-15T13:02:08;9.05;;;6.30;;
47523;SDS011;33253;42.144;25.884;2023-05-15T13:04:35;10.55;;;5.80;;
47523;SDS011;33253;42.144;25.884;2023-05-15T13:07:01;7.70;;;5.60;;
47523;SDS011;33253;42.144;25.884;2023-05-15T13:09:27;11.63;;;5.32;;
47523;SDS011;33253;42.144;25.884;2023-05-15T13:11:54;7.05;;;5.68;;
47523;SDS011;33253;42.144;25.884;2023-05-15T13:14:21;8.95;;;5.90;;
47523;SDS011;33253;42.144;25.884;2023-05-15T13:16:51;9.98;;;5.65;;
47523;SDS011;33253;42.144;25.884;2023-05-15T13:19:16;8.20;;;5.05;;
47523;SDS011;33253;42.144;25.884;2023-05-15T13:21:42;8.77;;;4.68;;
47523;SDS011;33253;42.144;25.884;2023-05-15T13:24:09;8.70;;;6.03;;
47523;SDS011;33253;42.144;25.884;2023-05-15T13:26:35;8.48;;;5.15;;
47523;SDS011;33253;42.144;25.884;2023-05-15T13:29:00;9.00;;;5.30;;
47523;SDS011;33253;42.144;25.884;2023-05-15T13:31:25;9.45;;;4.90;;
47523;SDS011;33253;42.144;25.884;2023-05-15T13:33:51;8.48;;;5.30;;
47523;SDS011;33253;42.144;25.884;2023-05-15T13:36:16;12.50;;;5.97;;
47523;SDS011;33253;42.144;25.884;2023-05-15T13:38:42;12.30;;;5.80;;
47523;SDS011;33253;42.144;25.884;2023-05-15T13:41:08;8.75;;;5.93;;
47523;SDS011;33253;42.144;25.884;2023-05-15T13:43:33;10.10;;;5.38;;
47523;SDS011;33253;42.144;25.884;2023-05-15T13:45:59;11.68;;;5.47;;
47523;SDS011;33253;42.144;25.884;2023-05-15T13:48:24;9.98;;;5.03;;
47523;SDS011;33253;42.144;25.884;2023-05-15T13:51:09;11.38;;;5.05;;
47523;SDS011;33253;42.144;25.884;2023-05-15T13:53:36;8.20;;;5.95;;
47523;SDS011;33253;42.144;25.884;2023-05-15T13:56:03;8.90;;;5.50;;
47523;SDS011;33253;42.144;25.884;2023-05-15T13:58:30;8.52;;;5.95;;
47523;SDS011;33253;42.144;25.884;2023-05-15T14:00:55;11.10;;;6.03;;
47523;SDS011;33253;42.144;25.884;2023-05-15T14:03:21;8.13;;;5.72;;
47523;SDS011;33253;42.144;25.884;2023-05-15T14:05:46;10.35;;;5.57;;
47523;SDS011;33253;42.144;25.884;2023-05-15T14:08:11;9.57;;;6.03;;
47523;SDS011;33253;42.144;25.884;2023-05-15T14:10:37;9.00;;;6.57;;
47523;SDS011;33253;42.144;25.884;2023-05-15T14:13:02;12.88;;;6.40;;
47523;SDS011;33253;42.144;25.884;2023-05-15T14:15:28;10.25;;;6.97;;
47523;SDS011;33253;42.144;25.884;2023-05-15T14:17:53;9.93;;;6.03;;
47523;SDS011;33253;42.144;25.884;2023-05-15T14:20:19;7.88;;;6.32;;
47523;SDS011;33253;42.144;25.884;2023-05-15T14:22:45;10.57;;;5.95;;
47523;SDS011;33253;42.144;25.884;2023-05-15T14:25:11;8.05;;;5.68;;
47523;SDS011;33253;42.144;25.884;2023-05-15T14:27:36;10.10;;;6.03;;
47523;SDS011;33253;42.144;25.884;2023-05-15T14:30:02;9.73;;;6.88;;
47523;SDS011;33253;42.144;25.884;2023-05-15T14:32:27;11.15;;;6.20;;
47523;SDS011;33253;42.144;25.884;2023-05-15T14:34:53;11.45;;;6.38;;
47523;SDS011;33253;42.144;25.884;2023-05-15T14:37:18;8.75;;;6.00;;
47523;SDS011;33253;42.144;25.884;2023-05-15T14:39:43;8.07;;;5.72;;
47523;SDS011;33253;42.144;25.884;2023-05-15T14:42:09;12.77;;;6.25;;
47523;SDS011;33253;42.144;25.884;2023-05-15T14:44:35;9.20;;;5.95;;
47523;SDS011;33253;42.144;25.884;2023-05-15T14:47:04;11.98;;;6.72;;
47523;SDS011;33253;42.144;25.884;2023-05-15T14:49:33;11.63;;;5.97;;
47523;SDS011;33253;42.144;25.884;2023-05-15T14:52:01;9.15;;;6.35;;